createdAt,value
2018-09-21T00:00:50.544Z,99746.75
2018-09-21T00:03:21.462Z,99742.76
2018-09-21T00:05:52.429Z,99733.81
2018-09-21T00:08:24.290Z,99732.44
2018-09-21T00:10:55.369Z,99734.17
2018-09-21T00:13:26.374Z,99731.30
2018-09-21T00:15:57.434Z,99729.08
2018-09-21T00:18:28.424Z,99722.05
2018-09-21T00:20:59.466Z,99715.04
2018-09-21T00:23:30.444Z,99720.00
2018-09-21T00:26:01.466Z,99717.76
2018-09-21T00:28:32.447Z,99715.52
2018-09-21T00:31:03.480Z,99716.05
2018-09-21T00:33:34.675Z,99709.52
2018-09-21T00:36:05.609Z,99709.08
2018-09-21T00:38:36.465Z,99706.53
2018-09-21T00:41:07.476Z,99701.60
2018-09-21T00:43:38.441Z,99702.43
2018-09-21T00:46:09.489Z,99700.72
2018-09-21T00:48:40.438Z,99702.25
2018-09-21T00:51:11.447Z,99687.59
2018-09-21T00:53:42.441Z,99684.50
2018-09-21T00:56:13.440Z,99696.95
2018-09-21T00:58:44.417Z,99687.08
2018-09-21T01:01:15.420Z,99692.95
2018-09-21T01:03:46.431Z,99686.17
2018-09-21T01:06:17.435Z,99689.10
2018-09-21T01:08:48.433Z,99692.23
2018-09-21T01:11:19.556Z,99682.80
2018-09-21T01:13:50.477Z,99682.34
2018-09-21T01:16:21.437Z,99684.98
2018-09-21T01:18:52.394Z,99678.12
2018-09-21T01:21:23.472Z,99684.28
2018-09-21T01:23:54.433Z,99672.27
2018-09-21T01:26:26.462Z,99666.21
2018-09-21T01:28:57.451Z,99665.64
2018-09-21T01:31:28.484Z,99665.13
2018-09-21T01:33:59.444Z,99666.67
2018-09-21T01:36:30.449Z,99664.30
2018-09-21T01:39:01.432Z,99673.48
2018-09-21T01:41:32.446Z,99663.05
2018-09-21T01:44:03.445Z,99663.31
2018-09-21T01:46:34.581Z,99667.77
2018-09-21T01:49:05.472Z,99665.09
2018-09-21T01:51:36.482Z,99661.83
2018-09-21T01:54:07.445Z,99659.61
2018-09-21T01:56:38.450Z,99660.16
2018-09-21T01:59:09.513Z,99650.22
2018-09-21T02:01:40.457Z,99650.17
2018-09-21T02:04:11.420Z,99650.37
2018-09-21T02:06:42.440Z,99640.66
2018-09-21T02:09:13.444Z,99642.84
2018-09-21T02:11:44.440Z,99644.17
2018-09-21T02:14:22.013Z,99640.94
2018-09-21T02:16:53.394Z,99643.72
2018-09-21T02:19:24.465Z,99645.70
2018-09-21T02:21:55.407Z,99639.80
2018-09-21T02:24:26.406Z,99632.58
2018-09-21T02:26:57.440Z,99635.00
2018-09-21T02:29:28.380Z,99629.70
2018-09-21T02:31:59.398Z,99622.63
2018-09-21T02:34:30.385Z,99616.27
2018-09-21T02:37:01.413Z,99616.65
2018-09-21T02:39:32.409Z,99608.72
2018-09-21T02:42:03.396Z,99608.47
2018-09-21T02:44:34.385Z,99610.34
2018-09-21T02:47:05.404Z,99609.02
2018-09-21T02:49:36.402Z,99613.33
2018-09-21T02:52:07.445Z,99608.38
2018-09-21T02:54:38.517Z,99610.35
2018-09-21T02:57:09.409Z,99611.35
2018-09-21T02:59:40.379Z,99616.73
2018-09-21T03:02:11.410Z,99610.61
2018-09-21T03:04:47.437Z,99610.61
2018-09-21T03:07:18.404Z,99609.20
2018-09-21T03:09:49.362Z,99602.63
2018-09-21T03:12:20.374Z,99593.22
2018-09-21T03:14:51.385Z,99582.77
2018-09-21T03:17:22.392Z,99575.62
2018-09-21T03:19:53.405Z,99577.10
2018-09-21T03:22:24.389Z,99577.27
2018-09-21T03:24:55.384Z,99568.08
2018-09-21T03:27:26.407Z,99562.55
2018-09-21T03:29:57.394Z,99562.25
2018-09-21T03:32:28.425Z,99567.41
2018-09-21T03:34:59.433Z,99560.26
2018-09-21T03:37:30.379Z,99567.65
2018-09-21T03:40:01.382Z,99567.59
2018-09-21T03:42:32.478Z,99563.83
2018-09-21T03:45:03.377Z,99567.70
2018-09-21T03:47:34.416Z,99553.09
2018-09-21T03:50:05.461Z,99549.32
2018-09-21T03:52:36.517Z,99537.16
2018-09-21T03:55:08.066Z,99536.44
2018-09-21T03:57:39.517Z,99542.05
2018-09-21T04:00:10.769Z,99540.46
2018-09-21T04:02:41.524Z,99535.76
2018-09-21T04:05:12.368Z,99533.69
2018-09-21T04:07:43.378Z,99533.58
2018-09-21T04:10:14.430Z,99524.03
2018-09-21T04:12:45.399Z,99518.63
2018-09-21T04:15:16.469Z,99515.13
2018-09-21T04:17:47.452Z,99508.19
2018-09-21T04:20:18.393Z,99510.61
2018-09-21T04:22:58.488Z,99498.48
2018-09-21T04:25:29.617Z,99498.37
2018-09-21T04:28:00.505Z,99503.98
2018-09-21T04:30:31.459Z,99494.81
2018-09-21T04:33:02.410Z,99503.33
2018-09-21T04:35:33.391Z,99498.83
2018-09-21T04:38:04.409Z,99498.37
2018-09-21T04:40:35.405Z,99491.00
2018-09-21T04:43:06.397Z,99496.34
2018-09-21T04:45:37.406Z,99487.30
2018-09-21T04:48:08.395Z,99493.73
2018-09-21T04:50:39.578Z,99496.45
2018-09-21T04:53:10.616Z,99480.45
2018-09-21T04:55:41.471Z,99478.22
2018-09-21T04:58:12.377Z,99471.14
2018-09-21T05:00:43.387Z,99467.91
2018-09-21T05:03:14.387Z,99473.48
2018-09-21T05:05:45.376Z,99473.92
2018-09-21T05:08:16.418Z,99475.00
2018-09-21T05:10:47.391Z,99470.61
2018-09-21T05:13:18.454Z,99470.02
2018-09-21T05:15:49.652Z,99464.36
2018-09-21T05:18:20.485Z,99467.67
2018-09-21T05:20:51.438Z,99471.25
2018-09-21T05:23:22.494Z,99464.59
2018-09-21T05:25:53.433Z,99467.14
2018-09-21T05:28:24.464Z,99453.76
2018-09-21T05:30:55.432Z,99464.31
2018-09-21T05:33:26.433Z,99458.22
2018-09-21T05:35:57.465Z,99459.09
2018-09-21T05:38:28.435Z,99451.41
2018-09-21T05:40:59.413Z,99448.16
2018-09-21T05:43:30.585Z,99443.96
2018-09-21T05:46:01.441Z,99440.27
2018-09-21T05:48:32.449Z,99448.28
2018-09-21T05:51:03.490Z,99439.88
2018-09-21T05:53:34.495Z,99442.56
2018-09-21T05:56:05.491Z,99437.41
2018-09-21T05:58:36.432Z,99440.36
2018-09-21T06:01:07.742Z,99440.98
2018-09-21T06:03:38.619Z,99438.30
2018-09-21T06:06:09.518Z,99440.38
2018-09-21T06:08:40.494Z,99443.92
2018-09-21T06:11:11.462Z,99444.92
2018-09-21T06:13:42.483Z,99441.91
2018-09-21T06:16:13.518Z,99438.23
2018-09-21T06:18:44.475Z,99433.91
2018-09-21T06:21:15.618Z,99429.41
2018-09-21T06:23:46.517Z,99432.14
2018-09-21T06:26:17.531Z,99418.27
2018-09-21T06:28:48.519Z,99426.89
2018-09-21T06:31:21.044Z,99427.00
2018-09-21T06:33:52.392Z,99421.81
2018-09-21T06:36:24.223Z,99412.98
2018-09-21T06:38:55.407Z,99409.70
2018-09-21T06:41:26.531Z,99415.17
2018-09-21T06:43:57.532Z,99396.81
2018-09-21T06:46:28.523Z,99391.98
2018-09-21T06:48:59.537Z,99390.74
2018-09-21T06:51:30.485Z,99390.05
2018-09-21T06:54:01.486Z,99397.47
2018-09-21T06:56:32.486Z,99399.52
2018-09-21T06:59:03.572Z,99402.42
2018-09-21T07:01:34.705Z,99400.85
2018-09-21T07:04:05.546Z,99404.89
2018-09-21T07:06:36.598Z,99406.95
2018-09-21T07:09:13.742Z,99407.87
2018-09-21T07:11:44.569Z,99402.91
2018-09-21T07:14:15.498Z,99406.50
2018-09-21T07:16:46.541Z,99400.27
2018-09-21T07:19:18.282Z,99402.41
2018-09-21T07:21:49.380Z,99411.19
2018-09-21T07:24:20.486Z,99416.13
2018-09-21T07:26:51.462Z,99418.53
2018-09-21T07:29:22.474Z,99424.95
2018-09-21T07:31:53.434Z,99427.20
2018-09-21T07:34:24.510Z,99418.88
2018-09-21T07:36:55.497Z,99420.84
2018-09-21T07:39:26.482Z,99419.89
2018-09-21T07:41:57.450Z,99415.08
2018-09-21T07:44:28.477Z,99409.92
2018-09-21T07:46:59.570Z,99406.05
2018-09-21T07:49:30.556Z,99396.98
2018-09-21T07:52:01.461Z,99402.58
2018-09-21T07:54:32.663Z,99398.08
2018-09-21T07:57:03.546Z,99406.88
2018-09-21T07:59:34.478Z,99412.14
2018-09-21T08:02:05.400Z,99397.95
2018-09-21T08:04:36.465Z,99401.96
2018-09-21T08:07:07.503Z,99397.73
2018-09-21T08:09:38.509Z,99400.90
2018-09-21T08:12:09.490Z,99403.08
2018-09-21T08:14:40.598Z,99401.31
2018-09-21T08:17:11.580Z,99386.51
2018-09-21T08:19:43.287Z,99396.42
2018-09-21T08:22:14.386Z,99399.74
2018-09-21T08:24:45.490Z,99406.39
2018-09-21T08:27:18.371Z,99407.88
2018-09-21T08:29:49.591Z,99418.39
2018-09-21T08:32:20.473Z,99414.64
2018-09-21T08:34:51.549Z,99420.58
2018-09-21T08:37:22.539Z,99426.34
2018-09-21T08:39:53.490Z,99427.08
2018-09-21T08:42:24.420Z,99414.72
2018-09-21T08:44:55.514Z,99411.66
2018-09-21T08:47:26.473Z,99410.16
2018-09-21T08:49:58.389Z,99409.31
2018-09-21T08:52:29.481Z,99406.02
2018-09-21T08:55:00.511Z,99419.13
2018-09-21T08:57:31.478Z,99400.72
2018-09-21T09:00:02.482Z,99407.83
2018-09-21T09:02:33.471Z,99407.31
2018-09-21T09:05:04.469Z,99406.56
2018-09-21T09:07:35.473Z,99401.75
2018-09-21T09:10:07.171Z,99405.22
2018-09-21T09:12:38.317Z,99388.48
2018-09-21T09:15:09.377Z,99397.32
2018-09-21T09:17:40.381Z,99395.01
2018-09-21T09:20:11.598Z,99389.03
2018-09-21T09:22:42.488Z,99395.61
2018-09-21T09:25:13.421Z,99393.02
2018-09-21T09:27:44.441Z,99392.55
2018-09-21T09:30:15.485Z,99392.99
2018-09-21T09:32:46.441Z,99386.27
2018-09-21T09:35:17.478Z,99386.91
2018-09-21T09:37:48.450Z,99392.89
2018-09-21T09:40:19.453Z,99399.47
2018-09-21T09:42:50.605Z,99393.64
2018-09-21T09:45:21.537Z,99405.96
2018-09-21T09:47:52.445Z,99405.21
2018-09-21T09:50:24.239Z,99401.73
2018-09-21T09:52:55.374Z,99399.66
2018-09-21T09:55:26.394Z,99395.53
2018-09-21T09:57:57.435Z,99396.13
2018-09-21T10:00:33.506Z,99393.23
2018-09-21T10:03:04.554Z,99383.29
2018-09-21T10:05:35.469Z,99378.97
2018-09-21T10:08:06.433Z,99373.34
2018-09-21T10:10:38.298Z,99371.60
2018-09-21T10:13:08.449Z,99368.47
2018-09-21T10:15:39.608Z,99363.00
2018-09-21T10:18:10.955Z,99364.34
2018-09-21T10:20:41.752Z,99363.55
2018-09-21T10:23:12.556Z,99351.95
2018-09-21T10:25:43.509Z,99356.23
2018-09-21T10:28:14.544Z,99350.85
2018-09-21T10:30:45.542Z,99336.83
2018-09-21T10:33:16.472Z,99347.39
2018-09-21T10:35:47.437Z,99339.38
2018-09-21T10:38:18.462Z,99331.31
2018-09-21T10:40:49.494Z,99324.26
2018-09-21T10:43:20.449Z,99323.78
2018-09-21T10:45:51.493Z,99324.84
2018-09-21T10:48:22.473Z,99337.21
2018-09-21T10:50:53.532Z,99328.97
2018-09-21T10:53:24.469Z,99336.95
2018-09-21T10:55:55.457Z,99315.95
2018-09-21T10:58:26.491Z,99329.44
2018-09-21T11:00:57.514Z,99319.28
2018-09-21T11:03:28.450Z,99315.35
2018-09-21T11:05:59.501Z,99305.08
2018-09-21T11:08:30.480Z,99304.30
2018-09-21T11:11:01.480Z,99299.75
2018-09-21T11:13:32.482Z,99298.45
2018-09-21T11:16:03.592Z,99291.91
2018-09-21T11:18:34.498Z,99282.80
2018-09-21T11:21:05.465Z,99277.19
2018-09-21T11:23:36.509Z,99294.74
2018-09-21T11:26:07.472Z,99279.47
2018-09-21T11:28:38.670Z,99281.86
2018-09-21T11:31:09.525Z,99285.35
2018-09-21T11:33:40.476Z,99269.85
2018-09-21T11:36:11.519Z,99257.01
2018-09-21T11:38:42.537Z,99276.25
2018-09-21T11:41:13.510Z,99276.36
2018-09-21T11:43:44.477Z,99303.89
2018-09-21T11:46:15.469Z,99310.13
2018-09-21T11:48:46.521Z,99324.08
2018-09-21T11:51:17.491Z,99319.62
2018-09-21T11:53:48.485Z,99314.04
2018-09-21T11:56:19.481Z,99307.18
2018-09-21T11:58:50.557Z,99294.20
2018-09-21T12:01:21.494Z,99307.22
2018-09-21T12:03:52.578Z,99325.84
2018-09-21T12:06:23.491Z,99343.62
2018-09-21T12:08:54.445Z,99334.98
2018-09-21T12:11:25.494Z,99335.89
2018-09-21T12:13:56.475Z,99336.13
2018-09-21T12:16:27.478Z,99306.22
2018-09-21T12:18:58.480Z,99299.01
2018-09-21T12:21:29.486Z,99315.15
2018-09-21T12:24:00.807Z,99303.48
2018-09-21T12:26:31.590Z,99309.92
2018-09-21T12:29:02.478Z,99301.19
2018-09-21T12:31:33.403Z,99296.56
2018-09-21T12:34:04.416Z,99325.39
2018-09-21T12:36:35.399Z,99319.62
2018-09-21T12:39:11.309Z,99332.09
2018-09-21T12:41:42.387Z,99327.45
2018-09-21T12:44:16.357Z,99338.25
2018-09-21T12:46:47.382Z,99329.73
2018-09-21T12:49:18.408Z,99338.30
2018-09-21T12:51:49.453Z,99340.88
2018-09-21T12:54:20.420Z,99347.92
2018-09-21T12:56:51.470Z,99346.94
2018-09-21T12:59:22.514Z,99341.05
2018-09-21T13:01:53.473Z,99341.45
2018-09-21T13:04:24.485Z,99354.35
2018-09-21T13:06:55.514Z,99355.03
2018-09-21T13:09:26.509Z,99359.25
2018-09-21T13:11:57.436Z,99390.92
2018-09-21T13:14:28.507Z,99429.47
2018-09-21T13:16:59.473Z,99508.88
2018-09-21T13:19:30.491Z,99515.06
2018-09-21T13:22:01.483Z,99531.52
2018-09-21T13:24:32.461Z,99525.78
2018-09-21T13:27:03.707Z,99549.60
2018-09-21T13:29:34.567Z,99564.07
2018-09-21T13:32:07.267Z,99570.86
2018-09-21T13:34:38.361Z,99575.98
2018-09-21T13:37:09.393Z,99570.98
2018-09-21T13:39:40.538Z,99567.42
2018-09-21T13:42:11.517Z,99572.52
2018-09-21T13:44:42.458Z,99588.13
2018-09-21T13:47:13.518Z,99594.88
2018-09-21T13:49:44.472Z,99593.23
2018-09-21T13:52:15.496Z,99594.66
2018-09-21T13:54:46.454Z,99575.47
2018-09-21T13:57:17.485Z,99583.61
2018-09-21T13:59:48.526Z,99580.14
2018-09-21T14:02:19.694Z,99570.62
2018-09-21T14:04:50.577Z,99596.71
2018-09-21T14:07:21.513Z,99592.25
2018-09-21T14:09:52.451Z,99600.99
2018-09-21T14:12:23.502Z,99593.81
2018-09-21T14:14:54.424Z,99597.84
2018-09-21T14:17:25.602Z,99616.36
2018-09-21T14:19:56.550Z,99624.83
2018-09-21T14:22:27.536Z,99620.59
2018-09-21T14:24:58.525Z,99623.81
2018-09-21T14:27:29.492Z,99617.57
2018-09-21T14:30:00.513Z,99608.20
2018-09-21T14:32:31.606Z,99601.90
2018-09-21T14:35:02.495Z,99619.39
2018-09-21T14:37:33.485Z,99628.18
2018-09-21T14:40:04.416Z,99627.67
2018-09-21T14:42:35.411Z,99647.28
2018-09-21T14:45:07.181Z,99652.08
2018-09-21T14:47:38.302Z,99658.91
2018-09-21T14:50:09.514Z,99679.86
2018-09-21T14:52:40.490Z,99671.38
2018-09-21T14:55:11.417Z,99649.59
2018-09-21T14:57:42.455Z,99641.90
2018-09-21T15:00:13.393Z,99618.60
2018-09-21T15:02:44.488Z,99631.25
2018-09-21T15:05:15.470Z,99633.11
2018-09-21T15:07:46.441Z,99639.48
2018-09-21T15:10:17.434Z,99668.00
2018-09-21T15:12:49.231Z,99672.15
2018-09-21T15:15:20.345Z,99670.77
2018-09-21T15:17:51.317Z,99681.44
2018-09-21T15:20:22.392Z,99697.62
2018-09-21T15:22:53.418Z,99695.41
2018-09-21T15:25:24.477Z,99716.05
2018-09-21T15:27:55.485Z,99734.04
2018-09-21T15:30:26.421Z,99743.59
2018-09-21T15:32:57.488Z,99748.84
2018-09-21T15:35:28.492Z,99755.30
2018-09-21T15:37:59.465Z,99759.21
2018-09-21T15:40:30.433Z,99766.00
2018-09-21T15:43:01.447Z,99764.16
2018-09-21T15:45:32.510Z,99764.19
2018-09-21T15:48:03.595Z,99771.67
2018-09-21T15:50:34.525Z,99768.06
2018-09-21T15:53:05.564Z,99771.30
2018-09-21T15:55:36.472Z,99769.73
2018-09-21T15:58:07.447Z,99767.52
2018-09-21T16:00:38.859Z,99776.84
2018-09-21T16:03:09.769Z,99780.01
2018-09-21T16:05:40.590Z,99791.73
2018-09-21T16:08:11.459Z,99796.83
2018-09-21T16:10:42.393Z,99798.00
2018-09-21T16:13:13.479Z,99797.30
2018-09-21T16:15:44.532Z,99810.35
2018-09-21T16:18:15.536Z,99809.08
2018-09-21T16:20:46.453Z,99812.77
2018-09-21T16:23:17.517Z,99812.02
2018-09-21T16:25:48.489Z,99823.21
2018-09-21T16:28:19.606Z,99832.27
2018-09-21T16:30:50.527Z,99833.16
2018-09-21T16:33:21.485Z,99827.66
2018-09-21T16:35:52.469Z,99829.44
2018-09-21T16:38:23.529Z,99832.14
2018-09-21T16:40:54.528Z,99836.61
2018-09-21T16:43:25.498Z,99844.03
2018-09-21T16:45:56.489Z,99852.94
2018-09-21T16:48:27.511Z,99855.13
2018-09-21T16:50:58.506Z,99863.03
2018-09-21T16:53:29.501Z,99860.38
2018-09-21T16:56:00.498Z,99874.27
2018-09-21T16:58:32.232Z,99864.86
2018-09-21T17:01:03.338Z,99877.23
2018-09-21T17:03:34.378Z,99882.62
2018-09-21T17:06:05.456Z,99889.60
2018-09-21T17:08:36.498Z,99896.74
2018-09-21T17:11:07.501Z,99899.31
2018-09-21T17:13:38.498Z,99902.40
2018-09-21T17:16:09.485Z,99913.31
2018-09-21T17:18:40.551Z,99921.31
2018-09-21T17:21:11.593Z,99915.48
2018-09-21T17:23:42.491Z,99926.97
2018-09-21T17:26:13.457Z,99928.98
2018-09-21T17:28:44.517Z,99918.03
2018-09-21T17:31:15.531Z,99946.17
2018-09-21T17:33:46.626Z,99950.66
2018-09-21T17:36:17.636Z,99953.84
2018-09-21T17:38:48.586Z,99968.17
2018-09-21T17:41:19.509Z,99988.67
2018-09-21T17:43:50.478Z,99979.34
2018-09-21T17:46:21.492Z,99990.83
2018-09-21T17:48:52.516Z,99992.98
2018-09-21T17:51:23.482Z,100002.16
2018-09-21T17:53:54.470Z,100010.34
2018-09-21T17:56:25.460Z,100014.31
2018-09-21T17:58:56.531Z,100007.15
2018-09-21T18:01:28.020Z,100012.98
2018-09-21T18:03:59.274Z,100019.45
2018-09-21T18:06:29.494Z,100021.95
2018-09-21T18:09:00.498Z,100026.30
2018-09-21T18:11:31.449Z,100033.91
2018-09-21T18:14:02.490Z,100044.78
2018-09-21T18:16:33.526Z,100041.59
2018-09-21T18:19:04.446Z,100050.59
2018-09-21T18:21:35.578Z,100052.57
2018-09-21T18:24:06.509Z,100057.92
2018-09-21T18:26:37.440Z,100072.23
2018-09-21T18:29:08.483Z,100062.23
2018-09-21T18:31:39.417Z,100055.44
2018-09-21T18:34:10.529Z,100073.70
2018-09-21T18:36:41.481Z,100073.38
2018-09-21T18:39:12.485Z,100078.74
2018-09-21T18:41:43.552Z,100080.08
2018-09-21T18:44:14.580Z,100079.84
2018-09-21T18:46:45.505Z,100096.89
2018-09-21T18:49:16.502Z,100095.53
2018-09-21T18:51:47.529Z,100091.91
2018-09-21T18:54:18.531Z,100083.92
2018-09-21T18:56:49.510Z,100103.39
2018-09-21T18:59:20.570Z,100105.39
2018-09-21T19:01:51.563Z,100109.92
2018-09-21T19:04:22.562Z,100111.23
2018-09-21T19:06:53.610Z,100114.86
2018-09-21T19:09:24.611Z,100121.19
2018-09-21T19:11:55.672Z,100127.88
2018-09-21T19:14:26.696Z,100138.17
2018-09-21T19:16:57.705Z,100146.84
2018-09-21T19:19:28.635Z,100147.84
2018-09-21T19:21:59.692Z,100149.87
2018-09-21T19:24:30.603Z,100154.77
2018-09-21T19:27:01.547Z,100156.16
2018-09-21T19:29:32.518Z,100164.31
2018-09-21T19:32:03.506Z,100171.79
2018-09-21T19:34:34.531Z,100177.98
2018-09-21T19:37:05.517Z,100176.73
2018-09-21T19:39:36.531Z,100177.61
2018-09-21T19:42:07.571Z,100185.28
2018-09-21T19:44:38.543Z,100180.03
2018-09-21T19:47:09.574Z,100183.50
2018-09-21T19:52:24.618Z,100199.36
2018-09-21T19:54:56.117Z,100199.03
2018-09-21T19:57:27.288Z,100201.14
2018-09-21T19:59:58.467Z,100207.54
2018-09-21T20:02:29.492Z,100208.81
2018-09-21T20:05:00.530Z,100201.98
2018-09-21T20:07:31.507Z,100213.78
2018-09-21T20:10:02.559Z,100216.50
2018-09-21T20:12:33.528Z,100217.38
2018-09-21T20:15:04.527Z,100222.94
2018-09-21T20:17:35.497Z,100220.46
2018-09-21T20:20:06.474Z,100227.44
2018-09-21T20:22:37.499Z,100219.77
2018-09-21T20:25:08.562Z,100226.63
2018-09-21T20:27:39.634Z,100229.66
2018-09-21T20:30:15.723Z,100241.35
2018-09-21T20:32:51.721Z,100241.88
2018-09-21T20:35:22.575Z,100256.37
2018-09-21T20:37:53.519Z,100255.64
2018-09-21T20:40:24.490Z,100265.04
2018-09-21T20:42:55.541Z,100259.64
2018-09-21T20:45:26.538Z,100275.92
2018-09-21T20:48:00.538Z,100273.41
2018-09-21T20:50:31.638Z,100278.45
2018-09-21T20:53:02.510Z,100280.72
2018-09-21T20:55:33.598Z,100282.39
2018-09-21T20:58:04.530Z,100274.89
2018-09-21T21:00:35.497Z,100286.97
2018-09-21T21:03:06.490Z,100292.08
2018-09-21T21:05:37.539Z,100293.88
2018-09-21T21:08:08.523Z,100308.69
2018-09-21T21:10:39.503Z,100307.66
2018-09-21T21:13:10.611Z,100307.66
2018-09-21T21:15:42.070Z,100308.52
2018-09-21T21:18:13.476Z,100322.69
2018-09-21T21:20:44.674Z,100318.31
2018-09-21T21:23:15.651Z,100322.41
2018-09-21T21:25:46.623Z,100315.44
2018-09-21T21:28:17.520Z,100316.72
2018-09-21T21:30:48.523Z,100319.98
2018-09-21T21:33:19.558Z,100327.09
2018-09-21T21:35:50.486Z,100324.75
2018-09-21T21:38:21.520Z,100329.07
2018-09-21T21:40:52.534Z,100329.17
2018-09-21T21:43:23.628Z,100331.25
2018-09-21T21:45:54.705Z,100337.52
2018-09-21T21:48:25.556Z,100340.72
2018-09-21T21:54:11.445Z,100358.49
2018-09-21T21:56:42.473Z,100368.02
2018-09-21T21:59:13.570Z,100365.84
2018-09-21T22:01:47.785Z,100362.59
2018-09-21T22:04:19.573Z,100362.64
2018-09-21T22:06:50.552Z,100363.64
2018-09-21T22:09:21.537Z,100369.98
2018-09-21T22:11:57.746Z,100368.75
2018-09-21T22:14:28.666Z,100375.02
2018-09-21T22:16:59.649Z,100384.92
2018-09-21T22:19:30.574Z,100380.23
2018-09-21T22:22:06.528Z,100382.84
2018-09-21T22:24:37.663Z,100374.57
2018-09-21T22:27:08.653Z,100380.43
2018-09-21T22:29:40.934Z,100380.48
2018-09-21T22:32:11.689Z,100380.86
2018-09-21T22:34:42.518Z,100390.07
2018-09-21T22:37:13.557Z,100393.23
2018-09-21T22:39:44.487Z,100391.02
2018-09-21T22:42:15.455Z,100403.16
2018-09-21T22:44:46.447Z,100398.20
2018-09-21T22:47:17.413Z,100402.98
2018-09-21T22:49:48.449Z,100406.09
2018-09-21T22:52:19.450Z,100408.44
2018-09-21T22:54:50.457Z,100410.83
2018-09-21T22:57:21.441Z,100413.78
2018-09-21T22:59:52.447Z,100410.52
2018-09-21T23:02:23.457Z,100411.75
2018-09-21T23:04:54.418Z,100422.61
2018-09-21T23:07:25.453Z,100421.78
2018-09-21T23:09:56.402Z,100429.55
2018-09-21T23:12:27.413Z,100436.27
2018-09-21T23:14:58.393Z,100436.13
2018-09-21T23:17:29.392Z,100440.88
2018-09-21T23:20:00.392Z,100448.52
2018-09-21T23:22:31.425Z,100450.87
2018-09-21T23:25:02.422Z,100449.21
2018-09-21T23:27:33.449Z,100449.00
2018-09-21T23:30:04.377Z,100448.98
2018-09-21T23:32:35.397Z,100458.91
2018-09-21T23:35:06.418Z,100458.28
2018-09-21T23:37:37.463Z,100454.17
2018-09-21T23:40:08.454Z,100463.39
2018-09-21T23:42:39.453Z,100466.50
2018-09-21T23:45:10.473Z,100468.11
2018-09-21T23:47:41.445Z,100473.42
2018-09-21T23:50:12.442Z,100469.30
2018-09-21T23:52:43.477Z,100472.20
2018-09-21T23:55:14.441Z,100480.87
2018-09-21T23:57:45.985Z,100481.16
